Time;durP1;ratioP1;P1;durP2;ratioP2;P2;SDS_P1;SDS_P2;PMS_P1;PMS_P2;Temp;Humidity;BMP_temperature;BMP_pressure;BME280_temperature;BME280_humidity;BME280_pressure;Samples;Min_cycle;Max_cycle;Signal;HPM_P1;HPM_P2
2023/02/27 00:01:52;;;;;;;6.30;4.80;;;;;;;3.16;85.05;101131.47;107602;1254;108679;-61
2023/02/27 00:04:20;;;;;;;5.20;4.50;;;;;;;3.12;84.95;101132.88;107603;1254;97814;-60
2023/02/27 00:06:49;;;;;;;6.40;5.10;;;;;;;3.12;84.92;101137.14;107612;1257;98355;-59
2023/02/27 00:09:17;;;;;;;6.90;5.20;;;;;;;3.12;85.18;101134.30;107585;1254;112357;-61
2023/02/27 00:11:45;;;;;;;5.70;4.50;;;;;;;3.11;85.02;101130.98;107556;1256;110553;-61
2023/02/27 00:14:13;;;;;;;7.60;4.90;;;;;;;3.13;85.33;101122.06;107563;1266;108589;-60
2023/02/27 00:16:42;;;;;;;6.40;4.60;;;;;;;3.11;85.65;101121.39;107539;1254;97809;-59
2023/02/27 00:19:11;;;;;;;5.80;4.30;;;;;;;3.08;85.36;101122.48;107653;1256;98356;-59
2023/02/27 00:21:40;;;;;;;5.30;4.10;;;;;;;3.04;85.31;101120.88;107687;1257;110773;-61
2023/02/27 00:24:08;;;;;;;6.90;4.60;;;;;;;3.05;85.28;101120.69;107684;1254;109539;-59
2023/02/27 00:26:36;;;;;;;5.30;4.40;;;;;;;3.06;85.41;101120.06;107554;1254;108709;-59
2023/02/27 00:29:06;;;;;;;4.80;4.00;;;;;;;3.09;85.50;101121.33;107567;1254;97828;-60
2023/02/27 00:31:34;;;;;;;8.30;4.80;;;;;;;3.11;85.60;101121.77;107507;1256;97767;-60
2023/02/27 00:34:03;;;;;;;6.30;4.20;;;;;;;3.14;85.58;101131.73;107556;1254;112433;-61
2023/02/27 00:36:31;;;;;;;7.70;5.20;;;;;;;3.16;85.42;101135.33;107564;1254;109682;-60
2023/02/27 00:38:59;;;;;;;7.70;5.00;;;;;;;3.19;85.72;101133.75;107456;1257;108283;-59
2023/02/27 00:41:28;;;;;;;6.00;4.80;;;;;;;3.23;85.49;101132.33;107568;1254;97706;-60
2023/02/27 00:43:58;;;;;;;5.70;4.20;;;;;;;3.26;85.53;101139.11;107587;1256;97702;-60
2023/02/27 00:46:26;;;;;;;6.70;4.90;;;;;;;3.26;85.22;101140.49;107557;1257;110779;-59
2023/02/27 00:48:55;;;;;;;6.30;4.80;;;;;;;3.27;85.00;101141.16;107547;1257;109726;-59
2023/02/27 00:51:25;;;;;;;5.30;4.70;;;;;;;3.31;85.42;101144.32;107460;1253;108195;-60
2023/02/27 00:53:55;;;;;;;5.50;4.60;;;;;;;3.34;85.17;101145.95;107592;1254;97719;-60
2023/02/27 00:56:24;;;;;;;6.30;4.40;;;;;;;3.34;85.08;101141.49;107619;1256;98382;-62
2023/02/27 00:58:52;;;;;;;7.50;4.70;;;;;;;3.37;85.08;101140.99;107564;1255;112304;-63
2023/02/27 01:01:22;;;;;;;6.80;4.50;;;;;;;3.38;85.03;101143.27;107521;1256;108156;-61
2023/02/27 01:03:50;;;;;;;6.00;4.70;;;;;;;3.40;84.99;101147.38;107560;1254;109375;-60
2023/02/27 01:06:18;;;;;;;5.00;4.50;;;;;;;3.42;85.08;101145.16;107529;1254;97826;-60
2023/02/27 01:08:47;;;;;;;6.50;4.80;;;;;;;3.43;84.82;101146.02;107549;1254;98372;-60
2023/02/27 01:11:16;;;;;;;7.10;4.50;;;;;;;3.43;84.91;101147.06;107523;1255;113268;-60
2023/02/27 01:13:45;;;;;;;4.90;4.10;;;;;;;3.43;84.73;101149.19;107413;1254;110492;-60
2023/02/27 01:16:13;;;;;;;7.00;4.90;;;;;;;3.41;84.58;101145.76;107581;1254;108270;-60
2023/02/27 01:18:42;;;;;;;8.10;4.60;;;;;;;3.35;84.59;101144.64;107654;1254;97915;-59
2023/02/27 01:21:10;;;;;;;7.60;4.70;;;;;;;3.30;84.68;101149.89;107632;1254;97930;-60
2023/02/27 01:23:39;;;;;;;5.60;4.60;;;;;;;3.24;84.67;101152.33;107665;1254;110911;-60
2023/02/27 01:26:08;;;;;;;5.70;4.70;;;;;;;3.22;84.70;101154.56;107601;1256;109391;-60
2023/02/27 01:28:36;;;;;;;5.50;4.30;;;;;;;3.19;84.84;101153.81;107549;1257;108300;-60
2023/02/27 01:31:05;;;;;;;8.90;4.60;;;;;;;3.16;85.14;101153.45;107617;1255;98512;-59
2023/02/27 01:33:33;;;;;;;5.10;4.10;;;;;;;3.07;85.34;101154.39;107584;1257;97899;-61
2023/02/27 01:36:01;;;;;;;7.20;4.60;;;;;;;3.04;85.27;101154.59;107561;1254;110828;-60
2023/02/27 01:38:30;;;;;;;5.60;4.80;;;;;;;3.00;85.65;101159.19;107568;1254;109643;-60
2023/02/27 01:41:01;;;;;;;7.70;5.00;;;;;;;2.96;85.62;101160.27;107595;1257;108597;-59
2023/02/27 01:43:51;;;;;;;5.90;5.30;;;;;;;2.92;85.76;101159.95;107569;1255;97899;-60
2023/02/27 01:46:20;;;;;;;6.80;5.00;;;;;;;2.91;86.38;101165.52;107613;1254;97733;-59
2023/02/27 01:48:54;;;;;;;8.10;5.20;;;;;;;2.89;86.35;101171.81;107460;1255;112318;-60
2023/02/27 01:51:23;;;;;;;6.80;5.00;;;;;;;2.88;86.32;101178.58;107617;1254;109065;-60
2023/02/27 01:53:52;;;;;;;5.70;4.80;;;;;;;2.89;86.25;101178.88;107562;1257;107521;-59
2023/02/27 01:56:25;;;;;;;7.50;4.60;;;;;;;2.89;86.09;101182.95;107571;1255;97929;-59
2023/02/27 01:59:00;;;;;;;5.60;4.60;;;;;;;2.91;86.40;101186.20;107505;1254;97832;-61
2023/02/27 02:01:31;;;;;;;6.20;5.00;;;;;;;2.90;86.14;101185.76;107632;1256;111752;-60
2023/02/27 02:04:12;;;;;;;6.00;5.30;;;;;;;2.90;86.14;101188.05;107628;1254;108759;-60
2023/02/27 02:06:45;;;;;;;6.80;5.30;;;;;;;2.90;86.37;101186.77;107533;1254;108493;-62
2023/02/27 02:09:17;;;;;;;5.40;4.40;;;;;;;2.95;86.47;101183.56;107313;1260;97826;-60
2023/02/27 02:11:46;;;;;;;6.10;4.50;;;;;;;2.93;86.68;101180.42;107504;1254;98389;-60
2023/02/27 02:14:18;;;;;;;5.60;4.70;;;;;;;2.92;86.81;101174.33;107366;1254;110854;-60
2023/02/27 02:17:16;;;;;;;10.60;5.60;;;;;;;2.87;87.15;101173.12;107446;1254;109210;-60
2023/02/27 02:19:56;;;;;;;6.00;4.60;;;;;;;2.79;86.93;101169.83;107502;1254;108269;-63
2023/02/27 02:22:57;;;;;;;9.10;5.20;;;;;;;2.74;87.49;101170.08;107469;1254;97832;-58
2023/02/27 02:25:37;;;;;;;7.80;5.70;;;;;;;2.67;87.64;101165.97;107566;1254;98391;-59
2023/02/27 02:28:48;;;;;;;8.10;5.40;;;;;;;2.64;88.11;101172.85;107586;1254;111388;-61
2023/02/27 02:32:02;;;;;;;8.10;5.60;;;;;;;2.57;88.71;101178.84;107488;1254;109040;-60
2023/02/27 02:34:45;;;;;;;9.20;5.20;;;;;;;2.51;88.87;101194.52;107521;1254;109391;-60
2023/02/27 02:37:16;;;;;;;7.90;5.50;;;;;;;2.48;88.46;101202.98;107549;1257;97710;-60
2023/02/27 02:40:24;;;;;;;7.90;5.30;;;;;;;2.46;88.89;101204.13;107594;1254;97729;-60
2023/02/27 02:43:10;;;;;;;6.80;4.60;;;;;;;2.45;89.03;101207.74;107516;1256;111161;-62
2023/02/27 02:45:48;;;;;;;7.60;4.70;;;;;;;2.47;89.21;101202.16;107561;1257;109659;-60
2023/02/27 02:48:25;;;;;;;7.40;5.80;;;;;;;2.46;89.18;101193.38;107548;1254;107804;-59
2023/02/27 02:51:35;;;;;;;8.30;6.10;;;;;;;2.43;89.53;101189.94;107401;1255;97816;-62
2023/02/27 02:54:32;;;;;;;9.30;5.40;;;;;;;2.40;89.60;101196.33;106883;1261;97915;-60
2023/02/27 02:57:14;;;;;;;7.00;5.20;;;;;;;2.39;89.83;101198.83;106743;1264;112342;-61
2023/02/27 02:59:59;;;;;;;7.10;5.20;;;;;;;2.38;89.96;101199.61;106852;1264;110273;-59
2023/02/27 03:02:35;;;;;;;7.90;6.00;;;;;;;2.35;90.04;101205.39;106822;1263;108775;-59
2023/02/27 03:05:18;;;;;;;9.20;5.30;;;;;;;2.34;90.25;101210.77;106937;1261;97846;-60
2023/02/27 03:08:07;;;;;;;5.70;5.10;;;;;;;2.31;90.37;101220.98;106819;1264;97938;-60
2023/02/27 03:11:03;;;;;;;7.20;5.50;;;;;;;2.31;90.49;101233.33;106858;1260;111689;-60
2023/02/27 03:13:43;;;;;;;8.80;6.00;;;;;;;2.31;90.90;101233.73;106910;1260;109175;-59
2023/02/27 03:16:20;;;;;;;6.20;5.40;;;;;;;2.30;90.98;101242.27;106791;1265;107879;-60
2023/02/27 03:18:59;;;;;;;7.20;5.90;;;;;;;2.28;90.76;101241.26;106868;1260;97860;-59
2023/02/27 03:21:58;;;;;;;7.10;5.90;;;;;;;2.29;90.76;101244.78;106866;1264;97870;-61
2023/02/27 03:24:32;;;;;;;7.30;5.60;;;;;;;2.32;90.97;101248.17;106863;1254;112187;-60
2023/02/27 03:27:03;;;;;;;7.10;5.90;;;;;;;2.33;90.74;101242.98;107423;1257;111162;-61
2023/02/27 03:30:04;;;;;;;9.40;5.30;;;;;;;2.33;90.90;101238.90;107454;1254;106015;-59
2023/02/27 03:33:01;;;;;;;10.60;5.50;;;;;;;2.35;91.11;101234.23;107134;1254;97836;-60
2023/02/27 03:36:03;;;;;;;9.70;6.20;;;;;;;2.33;91.04;101230.95;107422;1254;97797;-61
2023/02/27 03:38:53;;;;;;;6.30;5.20;;;;;;;2.31;90.99;101223.62;107401;1254;111890;-59
2023/02/27 03:41:31;;;;;;;7.40;5.30;;;;;;;2.28;90.83;101225.36;107428;1254;109096;-60
2023/02/27 03:44:52;;;;;;;8.20;5.90;;;;;;;2.24;90.82;101225.73;107403;1254;107667;-59
2023/02/27 03:47:21;;;;;;;6.00;5.20;;;;;;;2.24;90.97;101225.73;107405;1254;98607;-60
2023/02/27 03:49:50;;;;;;;7.50;5.40;;;;;;;2.22;91.11;101228.09;107385;1254;97937;-59
2023/02/27 03:52:20;;;;;;;6.90;4.80;;;;;;;2.20;91.18;101221.30;107450;1254;112306;-60
2023/02/27 03:55:20;;;;;;;6.60;5.10;;;;;;;2.17;91.22;101221.98;107431;1254;109697;-60
2023/02/27 03:57:51;;;;;;;7.00;4.90;;;;;;;2.11;91.20;101220.08;107419;1254;107375;-62
2023/02/27 04:00:22;;;;;;;6.50;5.10;;;;;;;2.11;91.40;101218.73;107349;1254;97828;-59
2023/02/27 04:02:53;;;;;;;8.80;5.40;;;;;;;2.10;91.36;101225.32;107422;1254;97841;-59
2023/02/27 04:05:25;;;;;;;8.80;5.30;;;;;;;2.13;91.61;101229.77;107476;1254;111844;-60
2023/02/27 04:08:08;;;;;;;8.50;5.50;;;;;;;2.12;91.51;101233.01;107430;1254;110368;-61
2023/02/27 04:10:56;;;;;;;9.30;5.50;;;;;;;2.11;91.66;101238.88;107452;1253;107985;-61
2023/02/27 04:13:43;;;;;;;7.00;6.00;;;;;;;2.09;91.58;101238.80;107450;1254;97945;-58
2023/02/27 04:16:41;;;;;;;7.00;5.20;;;;;;;2.09;91.90;101234.00;107439;1254;98412;-60
2023/02/27 04:19:21;;;;;;;6.80;5.20;;;;;;;2.08;91.85;101242.89;107585;1254;111633;-59
2023/02/27 04:22:27;;;;;;;6.40;5.20;;;;;;;2.10;92.34;101240.18;107567;1253;110113;-61
2023/02/27 04:25:06;;;;;;;7.40;5.80;;;;;;;2.05;92.20;101240.54;107439;1254;108369;-60
2023/02/27 04:27:46;;;;;;;7.70;5.70;;;;;;;2.03;92.42;101243.11;107455;1254;97818;-59
2023/02/27 04:30:21;;;;;;;5.40;4.90;;;;;;;2.02;92.56;101244.05;107456;1254;97841;-60
2023/02/27 04:33:09;;;;;;;;;;;;;;;2.01;92.62;101242.47;107431;1254;112835;-60
2023/02/27 04:35:46;;;;;;;6.10;5.30;;;;;;;2.01;92.71;101237.54;107418;1254;109646;-60
2023/02/27 04:38:48;;;;;;;8.80;6.10;;;;;;;2.03;92.80;101248.07;107445;1254;107956;-60
2023/02/27 04:41:24;;;;;;;9.00;6.20;;;;;;;2.03;92.99;101253.71;107476;1254;97892;-59
2023/02/27 04:43:54;;;;;;;10.50;5.40;;;;;;;2.03;92.90;101258.68;107428;1254;98350;-59
2023/02/27 04:46:26;;;;;;;9.60;6.80;;;;;;;2.05;93.02;101260.58;107475;1254;111305;-59
2023/02/27 04:49:03;;;;;;;9.50;6.80;;;;;;;2.02;93.12;101261.17;107481;1253;109140;-59
2023/02/27 04:51:43;;;;;;;9.00;7.00;;;;;;;2.01;93.28;101259.14;107562;1254;108329;-60
2023/02/27 04:54:16;;;;;;;7.50;6.20;;;;;;;1.98;93.33;101254.09;107668;1254;97831;-59
2023/02/27 04:57:01;;;;;;;9.10;6.50;;;;;;;1.98;93.52;101255.04;107616;1254;97720;-61
2023/02/27 04:59:35;;;;;;;12.10;6.30;;;;;;;1.93;93.81;101257.71;107607;1254;113594;-61
2023/02/27 05:02:13;;;;;;;8.30;6.60;;;;;;;1.94;93.89;101262.79;107430;1259;109295;-60
2023/02/27 05:04:44;;;;;;;8.70;6.10;;;;;;;1.93;94.10;101259.84;107447;1254;108794;-61
2023/02/27 05:07:17;;;;;;;11.60;6.00;;;;;;;1.94;94.17;101263.33;107481;1253;97822;-60
2023/02/27 05:09:54;;;;;;;14.50;8.30;;;;;;;1.96;94.31;101270.86;107595;1254;97704;-60
2023/02/27 05:12:31;;;;;;;8.40;5.90;;;;;;;1.97;94.48;101278.06;107580;1253;111767;-59
2023/02/27 05:15:11;;;;;;;9.80;6.70;;;;;;;1.96;94.38;101278.98;107620;1254;109720;-61
2023/02/27 05:17:46;;;;;;;8.80;6.40;;;;;;;1.96;94.43;101284.31;107548;1254;108413;-60
2023/02/27 05:20:16;;;;;;;9.40;6.60;;;;;;;1.96;94.71;101286.42;107596;1253;97841;-61
2023/02/27 05:22:50;;;;;;;8.20;6.20;;;;;;;1.96;94.67;101283.23;107623;1254;97715;-60
2023/02/27 05:25:50;;;;;;;12.00;5.90;;;;;;;1.97;94.70;101287.42;107629;1254;111312;-61
2023/02/27 05:28:42;;;;;;;9.00;6.50;;;;;;;1.98;94.78;101291.46;107605;1254;110260;-60
2023/02/27 05:31:25;;;;;;;10.00;6.90;;;;;;;2.00;94.93;101294.20;107516;1256;108194;-58
2023/02/27 05:34:07;;;;;;;11.50;6.50;;;;;;;2.04;95.01;101297.94;107562;1254;97923;-59
2023/02/27 05:36:52;;;;;;;8.30;6.40;;;;;;;2.05;95.01;101307.81;107531;1253;97857;-60
2023/02/27 05:39:24;;;;;;;7.60;6.40;;;;;;;2.07;94.94;101304.73;107616;1254;112028;-59
2023/02/27 05:41:59;;;;;;;9.90;6.70;;;;;;;2.07;94.86;101310.36;107563;1254;109103;-61
2023/02/27 05:44:34;;;;;;;10.20;6.80;;;;;;;2.09;95.03;101313.08;107595;1253;108142;-59
2023/02/27 05:47:12;;;;;;;11.40;7.20;;;;;;;2.14;94.75;101324.02;107549;1253;97822;-63
2023/02/27 05:49:46;;;;;;;8.10;7.00;;;;;;;2.16;94.76;101321.79;107560;1253;97679;-60
2023/02/27 05:52:18;;;;;;;10.60;6.60;;;;;;;2.20;94.76;101329.42;107567;1254;112312;-59
2023/02/27 05:55:14;;;;;;;9.00;6.20;;;;;;;2.22;94.67;101331.45;107579;1254;109547;-59
2023/02/27 05:57:56;;;;;;;7.80;6.20;;;;;;;2.25;94.51;101339.85;107519;1253;108464;-62
2023/02/27 06:00:52;;;;;;;10.40;6.40;;;;;;;2.26;94.50;101338.88;107587;1253;97882;-59
2023/02/27 06:03:21;;;;;;;9.30;7.30;;;;;;;2.26;93.95;101336.93;107668;1254;97802;-61
2023/02/27 06:05:52;;;;;;;11.40;8.30;;;;;;;2.27;93.86;101342.58;107653;1254;110350;-60
2023/02/27 06:08:21;;;;;;;11.20;7.80;;;;;;;2.27;94.12;101340.48;107611;1252;109990;-60
2023/02/27 06:10:50;;;;;;;9.30;7.20;;;;;;;2.28;94.16;101334.89;107614;1255;108101;-61
2023/02/27 06:13:18;;;;;;;11.90;7.10;;;;;;;2.30;94.36;101339.94;107568;1254;98683;-61
2023/02/27 06:15:48;;;;;;;10.40;7.60;;;;;;;2.31;94.20;101333.54;107581;1256;97835;-59
2023/02/27 06:18:17;;;;;;;11.00;7.70;;;;;;;2.31;93.96;101329.63;107615;1254;110826;-58
2023/02/27 06:20:46;;;;;;;11.70;9.00;;;;;;;2.33;93.99;101329.73;107665;1254;109578;-59
2023/02/27 06:23:14;;;;;;;10.50;7.70;;;;;;;2.36;94.27;101331.71;107584;1256;106767;-59
2023/02/27 06:25:43;;;;;;;15.30;10.50;;;;;;;2.40;94.07;101339.17;107583;1252;98474;-61
2023/02/27 06:28:11;;;;;;;11.10;8.00;;;;;;;2.41;94.06;101339.82;107472;1254;97727;-60
2023/02/27 06:30:40;;;;;;;10.50;7.70;;;;;;;2.44;94.04;101345.53;107590;1252;111347;-60
2023/02/27 06:33:11;;;;;;;9.70;7.10;;;;;;;2.45;93.75;101342.98;107550;1253;109745;-61
2023/02/27 06:35:39;;;;;;;11.60;8.30;;;;;;;2.47;93.64;101344.49;107580;1254;107551;-60
2023/02/27 06:38:08;;;;;;;11.60;8.90;;;;;;;2.49;93.44;101345.64;107563;1254;97857;-60
2023/02/27 06:40:37;;;;;;;10.40;7.50;;;;;;;2.51;93.42;101353.90;107592;1256;98353;-60
2023/02/27 06:43:06;;;;;;;13.20;8.70;;;;;;;2.54;93.18;101359.06;107468;1254;110959;-62
2023/02/27 06:45:36;;;;;;;13.00;8.00;;;;;;;2.55;93.23;101370.86;107587;1253;109551;-64
2023/02/27 06:48:05;;;;;;;13.10;8.10;;;;;;;2.61;93.19;101373.45;107592;1253;108758;-59
2023/02/27 06:50:34;;;;;;;13.30;8.30;;;;;;;2.67;93.32;101377.63;107558;1253;97797;-60
2023/02/27 06:53:03;;;;;;;12.30;8.90;;;;;;;2.74;93.22;101376.04;107452;1253;97928;-59
2023/02/27 06:55:32;;;;;;;12.80;9.70;;;;;;;2.78;92.91;101373.17;107584;1252;111828;-60
2023/02/27 06:58:00;;;;;;;12.70;8.40;;;;;;;2.84;92.82;101374.70;107643;1254;109888;-59
2023/02/27 07:00:29;;;;;;;11.60;8.90;;;;;;;2.90;92.69;101372.83;107592;1256;108276;-62
2023/02/27 07:02:57;;;;;;;16.20;9.90;;;;;;;2.94;92.62;101370.52;107554;1254;97848;-59
2023/02/27 07:05:26;;;;;;;15.60;9.70;;;;;;;2.98;92.60;101370.31;107453;1254;97823;-60
2023/02/27 07:07:54;;;;;;;12.50;10.00;;;;;;;3.02;92.43;101367.13;107639;1254;111870;-60
2023/02/27 07:10:25;;;;;;;13.50;9.80;;;;;;;3.03;92.10;101372.41;107535;1254;110074;-60
2023/02/27 07:12:54;;;;;;;16.30;10.80;;;;;;;3.05;92.07;101375.33;107452;1254;108657;-59
2023/02/27 07:15:22;;;;;;;16.60;9.90;;;;;;;3.12;92.36;101381.89;107581;1253;97883;-60
2023/02/27 07:17:53;;;;;;;14.70;9.50;;;;;;;3.17;92.18;101378.13;107543;1254;98389;-60
2023/02/27 07:20:21;;;;;;;14.40;10.40;;;;;;;3.21;92.04;101381.30;107568;1254;112138;-60
2023/02/27 07:22:50;;;;;;;16.50;9.90;;;;;;;3.23;91.63;101376.04;107626;1254;109676;-61
2023/02/27 07:25:19;;;;;;;12.40;9.90;;;;;;;3.26;91.36;101375.77;107542;1253;109507;-60
2023/02/27 07:27:49;;;;;;;16.10;10.10;;;;;;;3.27;91.37;101377.10;107596;1253;97771;-60
2023/02/27 07:30:18;;;;;;;15.30;10.00;;;;;;;3.30;91.04;101371.83;107610;1254;97931;-60
2023/02/27 07:32:57;;;;;;;19.60;10.80;;;;;;;3.30;90.92;101372.20;107626;1253;111857;-62
2023/02/27 07:35:28;;;;;;;17.80;11.40;;;;;;;3.32;91.05;101373.67;107479;1254;111861;-60
2023/02/27 07:37:57;;;;;;;14.60;11.00;;;;;;;3.35;90.71;101374.08;107617;1254;107080;-60
2023/02/27 07:40:25;;;;;;;13.40;10.50;;;;;;;3.37;91.02;101374.33;107603;1254;97842;-61
2023/02/27 07:42:53;;;;;;;14.50;10.00;;;;;;;3.39;90.84;101378.32;107624;1253;98415;-60
2023/02/27 07:45:22;;;;;;;15.10;10.10;;;;;;;3.43;90.51;101374.92;107508;1254;110948;-61
2023/02/27 07:47:51;;;;;;;12.30;9.60;;;;;;;3.42;90.25;101365.02;107629;1254;108920;-60
2023/02/27 07:50:19;;;;;;;15.20;9.90;;;;;;;3.42;90.18;101362.73;107599;1254;108182;-60
2023/02/27 07:52:48;;;;;;;14.30;10.30;;;;;;;3.42;89.97;101364.33;107633;1254;97811;-60
2023/02/27 07:55:16;;;;;;;11.20;9.00;;;;;;;3.42;90.00;101367.71;107613;1253;99511;-59
2023/02/27 07:57:45;;;;;;;14.20;10.00;;;;;;;3.38;89.56;101372.84;107603;1254;112197;-61
2023/02/27 08:00:14;;;;;;;14.80;10.20;;;;;;;3.37;89.63;101376.96;107616;1254;109627;-60
2023/02/27 08:02:42;;;;;;;12.00;9.90;;;;;;;3.38;89.84;101378.71;107632;1253;107445;-61
2023/02/27 08:05:11;;;;;;;17.10;10.90;;;;;;;3.38;89.97;101382.23;107655;1254;97742;-61
2023/02/27 08:07:40;;;;;;;16.70;11.00;;;;;;;3.38;89.96;101380.63;107635;1253;98392;-62
2023/02/27 08:10:09;;;;;;;18.50;11.10;;;;;;;3.41;90.01;101378.90;107500;1254;111204;-60
2023/02/27 08:12:38;;;;;;;14.20;10.30;;;;;;;3.42;89.93;101377.80;107612;1253;109641;-59
2023/02/27 08:15:07;;;;;;;16.00;10.50;;;;;;;3.44;90.17;101377.33;107476;1254;108381;-59
2023/02/27 08:17:36;;;;;;;12.60;9.50;;;;;;;3.48;89.89;101384.98;107594;1253;97700;-61
2023/02/27 08:20:06;;;;;;;17.30;10.60;;;;;;;3.49;89.83;101378.90;107628;1254;98436;-59
2023/02/27 08:22:35;;;;;;;18.60;11.40;;;;;;;3.49;89.76;101377.11;107652;1254;111869;-59
2023/02/27 08:25:06;;;;;;;19.00;12.00;;;;;;;3.52;89.72;101380.52;107614;1254;109799;-61
2023/02/27 08:27:34;;;;;;;15.00;11.20;;;;;;;3.56;89.91;101381.58;107605;1256;107615;-59
2023/02/27 08:30:06;;;;;;;17.80;12.70;;;;;;;3.60;89.92;101380.66;107636;1252;97810;-59
2023/02/27 08:32:34;;;;;;;17.60;12.20;;;;;;;3.62;89.80;101384.84;107629;1253;99014;-60
2023/02/27 08:35:03;;;;;;;19.70;12.90;;;;;;;3.63;89.71;101387.61;107612;1253;111449;-59
2023/02/27 08:37:32;;;;;;;18.30;11.40;;;;;;;3.64;89.85;101384.02;107636;1254;109499;-59
2023/02/27 08:40:00;;;;;;;17.50;12.30;;;;;;;3.64;89.65;101381.90;107572;1256;108133;-59
2023/02/27 08:42:29;;;;;;;16.10;12.40;;;;;;;3.65;89.58;101384.85;107551;1256;98502;-61
2023/02/27 08:44:58;;;;;;;18.50;11.70;;;;;;;3.65;89.65;101386.10;107472;1253;98018;-60
2023/02/27 08:47:26;;;;;;;17.20;11.70;;;;;;;3.66;89.73;101394.20;107615;1254;111342;-61
2023/02/27 08:49:55;;;;;;;17.90;11.90;;;;;;;3.71;89.64;101401.95;107602;1254;110242;-60
2023/02/27 08:52:24;;;;;;;19.40;12.40;;;;;;;3.75;89.62;101406.87;107627;1253;107941;-60
2023/02/27 08:54:52;;;;;;;16.90;12.80;;;;;;;3.80;89.70;101410.90;107590;1253;97867;-60
2023/02/27 08:57:21;;;;;;;17.90;12.50;;;;;;;3.85;89.71;101415.23;107650;1256;98389;-59
2023/02/27 08:59:49;;;;;;;23.40;13.90;;;;;;;3.90;89.63;101418.02;107608;1256;112273;-60
2023/02/27 09:02:18;;;;;;;20.60;13.80;;;;;;;3.91;89.54;101423.11;107610;1253;110044;-60
2023/02/27 09:04:46;;;;;;;19.60;13.20;;;;;;;3.96;89.67;101423.79;107622;1256;108808;-60
2023/02/27 09:07:15;;;;;;;19.80;13.70;;;;;;;4.03;89.72;101427.13;107612;1254;97831;-60
2023/02/27 09:09:43;;;;;;;17.90;12.10;;;;;;;4.09;89.50;101426.48;107621;1254;98409;-60
2023/02/27 09:12:12;;;;;;;27.10;16.30;;;;;;;4.12;89.24;101429.20;107674;1253;111752;-61
2023/02/27 09:14:40;;;;;;;19.80;13.00;;;;;;;4.14;89.21;101434.58;107623;1254;111232;-60
2023/02/27 09:17:08;;;;;;;21.80;13.50;;;;;;;4.16;89.19;101434.66;107608;1253;109201;-61
2023/02/27 09:19:37;;;;;;;17.80;12.80;;;;;;;4.18;89.02;101431.02;107589;1254;97897;-60
2023/02/27 09:22:05;;;;;;;17.00;12.40;;;;;;;4.21;89.13;101431.89;107643;1253;98350;-59
2023/02/27 09:24:33;;;;;;;23.90;13.50;;;;;;;4.24;89.06;101436.39;107621;1253;111884;-59
2023/02/27 09:27:02;;;;;;;21.60;12.50;;;;;;;4.25;88.65;101437.75;107576;1254;110011;-60
2023/02/27 09:29:30;;;;;;;22.40;14.60;;;;;;;4.27;88.66;101439.75;107606;1254;107339;-59
2023/02/27 09:31:59;;;;;;;19.90;13.10;;;;;;;4.31;88.93;101444.55;107580;1254;97916;-59
2023/02/27 09:34:28;;;;;;;15.50;11.00;;;;;;;4.31;88.70;101443.48;107658;1253;98398;-60
2023/02/27 09:37:00;;;;;;;16.10;11.00;;;;;;;4.27;88.24;101447.44;107634;1253;112401;-60
2023/02/27 09:39:29;;;;;;;16.40;10.90;;;;;;;4.26;88.38;101448.38;107632;1254;109785;-59
2023/02/27 09:42:04;;;;;;;16.40;10.50;;;;;;;4.26;88.37;101446.07;107378;1259;108613;-59
2023/02/27 09:44:43;;;;;;;16.00;11.80;;;;;;;4.24;87.81;101441.73;107458;1254;97838;-61
2023/02/27 09:47:28;;;;;;;16.50;11.60;;;;;;;4.22;87.78;101440.21;107504;1254;98450;-58
2023/02/27 09:50:21;;;;;;;19.00;11.10;;;;;;;4.16;87.70;101443.34;107440;1254;112144;-59
2023/02/27 09:52:49;;;;;;;16.80;10.60;;;;;;;4.15;87.56;101446.63;106682;1257;1039906;-59
2023/02/27 09:55:21;;;;;;;18.80;10.70;;;;;;;4.14;87.37;101452.71;107406;1254;107476;-60
2023/02/27 09:58:12;;;;;;;14.90;10.00;;;;;;;4.15;87.45;101454.59;107615;1253;97720;-61
2023/02/27 10:01:04;;;;;;;14.60;10.20;;;;;;;4.15;87.32;101456.74;107618;1254;97730;-61
2023/02/27 10:04:08;;;;;;;17.10;10.30;;;;;;;4.13;86.89;101460.91;107647;1253;111746;-60
2023/02/27 10:07:15;;;;;;;16.90;10.30;;;;;;;4.12;86.90;101461.88;107480;1253;110049;-60
2023/02/27 10:09:57;;;;;;;16.30;9.90;;;;;;;4.14;86.89;101462.65;107039;1253;108325;-60
2023/02/27 10:12:52;;;;;;;12.90;9.20;;;;;;;4.12;86.88;101464.15;107589;1256;97898;-61
2023/02/27 10:15:31;;;;;;;12.20;9.10;;;;;;;4.16;86.75;101464.66;107647;1254;97856;-61
2023/02/27 10:18:03;;;;;;;11.20;8.10;;;;;;;4.19;86.80;101464.33;107630;1253;112208;-59
2023/02/27 10:20:55;;;;;;;9.10;7.10;;;;;;;4.24;86.48;101462.33;107641;1254;109241;-61
2023/02/27 10:23:49;;;;;;;10.20;7.50;;;;;;;4.26;85.84;101466.27;107638;1253;108122;-61
2023/02/27 10:26:21;;;;;;;12.20;7.30;;;;;;;4.28;85.66;101467.27;107610;1253;97730;-59
2023/02/27 10:28:49;;;;;;;9.90;7.30;;;;;;;4.36;85.57;101470.05;107621;1253;97767;-60
2023/02/27 10:31:23;;;;;;;12.30;8.20;;;;;;;4.41;85.66;101468.72;107601;1256;110794;-60
2023/02/27 10:33:51;;;;;;;;;;;;;;;4.47;85.78;101467.67;107668;1254;109154;-60
2023/02/27 10:36:21;;;;;;;12.10;8.80;;;;;;;4.52;85.59;101470.48;107583;1254;108232;-60
2023/02/27 10:39:06;;;;;;;11.90;7.90;;;;;;;4.57;85.56;101468.27;107591;1252;97793;-60
2023/02/27 10:41:37;;;;;;;8.60;7.00;;;;;;;4.61;84.22;101465.75;107639;1254;97836;-61
2023/02/27 10:44:09;;;;;;;8.60;6.40;;;;;;;4.54;83.60;101460.77;107630;1254;112291;-59
2023/02/27 10:46:39;;;;;;;10.60;5.70;;;;;;;4.48;83.36;101457.88;107651;1254;111507;-60
2023/02/27 10:49:17;;;;;;;9.80;6.10;;;;;;;4.39;82.68;101454.81;107628;1254;106475;-61
2023/02/27 10:52:04;;;;;;;13.40;7.40;;;;;;;4.29;83.29;101449.08;107614;1252;97827;-59
2023/02/27 10:54:33;;;;;;;10.50;7.50;;;;;;;4.27;84.30;101448.29;107645;1254;99594;-60
2023/02/27 10:57:17;;;;;;;7.10;6.00;;;;;;;4.29;84.97;101447.15;107643;1252;111416;-59
2023/02/27 11:00:08;;;;;;;8.70;6.70;;;;;;;4.25;84.91;101453.36;107649;1254;110074;-61
2023/02/27 11:02:42;;;;;;;11.10;8.20;;;;;;;4.22;85.24;101457.58;107642;1254;108669;-59
2023/02/27 11:05:26;;;;;;;8.80;6.70;;;;;;;4.25;85.54;101457.64;107636;1254;97817;-58
2023/02/27 11:08:10;;;;;;;;;;;;;;;4.27;85.49;101455.59;107649;1253;97947;-60
2023/02/27 11:10:56;;;;;;;9.20;6.80;;;;;;;4.28;85.66;101453.05;107615;1254;111297;-60
2023/02/27 11:13:28;;;;;;;9.60;6.40;;;;;;;4.32;85.43;101453.55;107619;1252;109908;-59
2023/02/27 11:16:07;;;;;;;8.50;6.50;;;;;;;4.36;85.54;101454.59;107594;1253;109034;-60
2023/02/27 11:18:38;;;;;;;11.00;6.90;;;;;;;4.42;85.53;101461.93;107620;1253;97822;-61
2023/02/27 11:21:10;;;;;;;8.30;5.90;;;;;;;4.45;85.26;101465.16;107469;1253;98282;-60
2023/02/27 11:24:05;;;;;;;12.40;6.90;;;;;;;4.41;84.93;101466.95;107584;1256;111765;-59
2023/02/27 11:26:39;;;;;;;8.40;6.00;;;;;;;4.39;84.77;101468.12;107629;1253;109771;-61
2023/02/27 11:29:14;;;;;;;8.90;6.60;;;;;;;4.33;84.50;101473.23;107589;1254;107448;-60
2023/02/27 11:31:53;;;;;;;8.50;6.30;;;;;;;4.29;84.50;101470.40;107609;1253;97845;-59
2023/02/27 11:34:32;;;;;;;8.10;6.00;;;;;;;4.28;84.58;101470.63;107616;1252;97721;-61
2023/02/27 11:37:06;;;;;;;10.90;5.50;;;;;;;4.24;84.34;101473.30;107617;1254;111876;-60
2023/02/27 11:39:47;;;;;;;9.90;6.60;;;;;;;4.18;83.63;101480.20;107667;1254;110035;-60
2023/02/27 11:42:17;;;;;;;9.90;6.70;;;;;;;4.09;83.91;101487.52;107592;1253;108715;-61
2023/02/27 11:45:00;;;;;;;8.90;5.90;;;;;;;4.07;84.26;101486.60;107534;1254;97813;-61
2023/02/27 11:47:34;;;;;;;7.90;6.10;;;;;;;4.10;84.47;101485.20;107213;1253;97935;-60
2023/02/27 11:50:23;;;;;;;9.60;6.00;;;;;;;4.10;84.27;101486.80;107168;1254;113319;-61
2023/02/27 11:53:00;;;;;;;7.90;6.10;;;;;;;4.14;84.50;101497.94;107486;1253;109240;-61
2023/02/27 11:55:31;;;;;;;7.80;5.60;;;;;;;4.19;84.53;101507.64;107432;1254;108296;-61